»·PEaware :: SWA765 KSAN-KSFO

SWA765 :: KSAN-KSFO

FLIGHT INFORMATION

Flight Status: Arrived
Operator:
Southwest Airlines
More flights by this operator :: More flights under this callsign
Pilot: Ben L. (6391)
Aircraft: BOEING 737-800
(B738)
More flights by this aircraft type
Origin: KSAN San Diego Intl-Lindbergh
United States
Destination: KSFO San Francisco Intl
United States
More flights between these airports :: More routes between these airports
Route: +PADRZ2 IKAYE RIZIN SPLNT STOKD SERFR SERFR3
File this flight plan on PilotEdge
Remarks:
Altitude:
(Current/Filed)
40,000ft
Speed:
(Current/Filed)
460kts
Departed: 18-Jul-19 11:13 AM
Arrived: 18-Jul-19 12:15 PM
Distance/Time
Traveled:
388nm/1:02
Distance/Time
To Go:
Arrived

Flight Plot

Page will automatically refresh every two minutes.

Flight plan parsing failed; only flown route is shown


Map Options




Map Legend


Flown Route
Filed Route
Departure Airport
Arrival Airport
Navaid (VOR, NDB)
Fix

Horizontal Profiles

Position Reports

Time Latitude Longitude Heading Altitude Ground
Speed
18-Jul-19 10:52 32.732557 -117.195475 307 21ft 0kts
18-Jul-19 10:53 32.732557 -117.195475 307 21ft 0kts
18-Jul-19 10:54 32.732557 -117.195475 307 21ft 0kts
18-Jul-19 10:55 32.732557 -117.195475 307 21ft 0kts
18-Jul-19 10:56 32.732557 -117.195475 307 21ft 0kts
18-Jul-19 10:57 32.732557 -117.195475 307 21ft 0kts
18-Jul-19 10:58 32.732557 -117.195475 307 21ft 0kts
18-Jul-19 10:59 32.732557 -117.195475 307 21ft 0kts
18-Jul-19 11:00 32.732557 -117.195475 307 21ft 0kts
18-Jul-19 11:01 32.732557 -117.195475 307 21ft 0kts
18-Jul-19 11:02 32.732557 -117.195475 307 21ft 0kts
18-Jul-19 11:03 32.732557 -117.195475 307 21ft 0kts
18-Jul-19 11:04 32.732556 -117.195475 307 21ft 0kts
18-Jul-19 11:05 32.732285 -117.195108 333 21ft 2kts
18-Jul-19 11:06 32.731826 -117.195141 31 21ft 0kts
18-Jul-19 11:07 32.731827 -117.195141 31 21ft 0kts
18-Jul-19 11:08 32.732990 -117.194381 30 21ft 0kts
18-Jul-19 11:09 32.732292 -117.188676 105 21ft 26kts
18-Jul-19 11:10 32.730201 -117.180062 106 19ft 27kts
18-Jul-19 11:11 32.730267 -117.176192 292 25ft 6kts
18-Jul-19 11:12 32.742197 -117.214060 309 1675ft 182kts
18-Jul-19 11:13 32.775377 -117.275103 300 4695ft 258kts
18-Jul-19 11:14 32.817915 -117.347157 304 8996ft 279kts
18-Jul-19 11:15 32.869374 -117.426527 303 12003ft 332kts
18-Jul-19 11:16 32.927630 -117.516979 304 14965ft 356kts
18-Jul-19 11:17 32.988287 -117.611608 304 16368ft 364kts
18-Jul-19 11:18 33.049826 -117.707746 305 19428ft 382kts
18-Jul-19 11:19 33.128760 -117.795712 318 22264ft 401kts
18-Jul-19 11:20 33.214025 -117.885330 314 23068ft 406kts
18-Jul-19 11:21 33.294436 -117.981717 314 24091ft 414kts
18-Jul-19 11:22 33.377456 -118.080920 314 26500ft 427kts
18-Jul-19 11:23 33.463309 -118.183814 314 28623ft 442kts
18-Jul-19 11:24 33.551524 -118.289852 315 30563ft 455kts
18-Jul-19 11:25 33.640907 -118.397632 315 32880ft 453kts
18-Jul-19 11:26 33.729051 -118.504252 315 35108ft 447kts
18-Jul-19 11:27 33.816521 -118.610386 315 37010ft 444kts
18-Jul-19 11:28 33.900116 -118.712098 314 38065ft 453kts
18-Jul-19 11:29 33.989556 -118.821249 315 38064ft 457kts
18-Jul-19 11:30 34.078590 -118.930262 315 38064ft 456kts
18-Jul-19 11:31 34.161568 -119.046011 303 38062ft 459kts
18-Jul-19 11:32 34.229394 -119.177503 302 38060ft 460kts
18-Jul-19 11:33 34.296426 -119.307863 302 38067ft 458kts
18-Jul-19 11:34 34.363195 -119.438188 302 38067ft 458kts
18-Jul-19 11:35 34.437558 -119.564934 315 38659ft 461kts
18-Jul-19 11:36 34.522978 -119.669961 315 38314ft 452kts
18-Jul-19 11:37 34.611344 -119.778858 315 38065ft 457kts
18-Jul-19 11:38 34.700481 -119.889119 315 38055ft 456kts
18-Jul-19 11:39 34.789272 -119.999275 315 38047ft 455kts
18-Jul-19 11:40 34.877728 -120.109415 315 38051ft 456kts
18-Jul-19 11:41 34.966613 -120.220439 316 38062ft 461kts
18-Jul-19 11:42 35.055996 -120.332435 316 38066ft 464kts
18-Jul-19 11:43 35.144769 -120.437105 320 38061ft 461kts
18-Jul-19 11:44 35.238924 -120.542185 320 38055ft 462kts
18-Jul-19 11:45 35.332890 -120.647877 320 38058ft 462kts
18-Jul-19 11:46 35.422984 -120.749449 319 38044ft 462kts
18-Jul-19 11:47 35.519268 -120.851710 325 38018ft 460kts
18-Jul-19 11:48 35.620648 -120.945365 325 38020ft 459kts
18-Jul-19 11:49 35.722448 -121.040107 325 38019ft 458kts
18-Jul-19 11:50 35.823656 -121.134605 326 38019ft 458kts
18-Jul-19 11:51 35.924744 -121.229279 326 38017ft 458kts
18-Jul-19 11:52 36.026269 -121.324678 326 37256ft 462kts
18-Jul-19 11:53 36.120156 -121.405228 331 34795ft 453kts
18-Jul-19 11:54 36.231063 -121.491538 330 31618ft 463kts
18-Jul-19 11:55 36.340614 -121.577339 330 28652ft 461kts
18-Jul-19 11:56 36.444302 -121.658801 329 25975ft 454kts
18-Jul-19 11:57 36.541213 -121.735360 328 23841ft 410kts
18-Jul-19 11:58 36.634232 -121.808970 328 21459ft 398kts
18-Jul-19 11:59 36.725611 -121.880357 333 19169ft 379kts
18-Jul-19 12:00 36.822550 -121.916922 347 16863ft 364kts
18-Jul-19 12:01 36.918790 -121.943669 347 14660ft 350kts
18-Jul-19 12:02 37.010573 -121.975837 342 12509ft 336kts
18-Jul-19 12:03 37.097139 -122.009675 341 10841ft 310kts
18-Jul-19 12:04 37.170617 -122.038403 341 10008ft 277kts
18-Jul-19 12:05 37.246335 -122.068092 341 8544ft 303kts
18-Jul-19 12:06 37.321938 -122.097821 341 7102ft 258kts
18-Jul-19 12:07 37.383806 -122.121999 343 6011ft 226kts
18-Jul-19 12:08 37.444556 -122.142612 343 5582ft 225kts
18-Jul-19 12:09 37.496378 -122.168731 324 4794ft 190kts
18-Jul-19 12:10 37.535673 -122.211457 311 3827ft 189kts
18-Jul-19 12:11 37.565612 -122.257409 307 1967ft 154kts
18-Jul-19 12:12 37.586935 -122.301352 300 1024ft 139kts
18-Jul-19 12:13 37.605241 -122.343334 301 300ft 133kts
18-Jul-19 12:14 37.617969 -122.373274 298 17ft 32kts
18-Jul-19 12:15 37.617518 -122.379442 181 28ft 11kts
18-Jul-19 12:16 37.613207 -122.382065 241 31ft 9kts
18-Jul-19 12:17 37.611498 -122.383967 287 31ft 10kts
18-Jul-19 12:18 37.612238 -122.384138 29 31ft 0kts

Navigation Log

Ident Type
Flight plan parsing failed, navigation log unavailable